Mahackala, Russia
Current Conditions -  °F | °C
As of 7:00 PM on Monday 26 Jan 2015 (Local Time) from URML Reporting Station
Haze Haze  
Wind Chill: 33°   Ceiling: 1000
Heat Index: 41°   Visibility: 2mi
Dew Point: 39°   Wind: 16mph
Humidity: 93%   Direction: 160°SSE
Pressure: 30.18"   Gusts: NA
Location:  42.97°N, 47.49°E
Report Text: URML 261600Z 16007MPS 3200 BR OVC010 05/04 Q1022 TEMPO 1200 RABR OVC003 RMK MT OBSC QFE766/1022 SC055
Loading
Personal Weather Stations






























Interactive Weather Map New forecast layout! Learn more

10-Day Weather Forecast

Advertisements
Track Severe Weather on mobile